Attleboro Falls, Massachusetts
Current Conditions -  °F | °C
As of 9:35 AM on Tuesday 21 Oct 2014 (Local Time) from KSFZ Reporting Station
Broken Clouds Broken Clouds  
Wind Chill: 55°   Ceiling: 6500
Heat Index: 55°   Visibility: 10mi
Dew Point: 46°   Wind: 6mph
Humidity: 72%   Direction: 70°ENE
Pressure: 29.95"   Gusts: NA
Location:  41.97°N, 71.32°W
Report Text: KSFZ 211335Z 07005KT 10SM FEW030 SCT041 BKN065 13/08 A2995 RMK AO1
Loading
Personal Weather Stations






























Interactive Weather Map New forecast layout! Learn more

10-Day Weather Forecast

Advertisements
Track Severe Weather on mobile